Time;durP1;ratioP1;P1;durP2;ratioP2;P2;SDS_P1;SDS_P2;PMS_P1;PMS_P2;Temp;Humidity;BMP_temperature;BMP_pressure;BME280_temperature;BME280_humidity;BME280_pressure;Samples;Min_cycle;Max_cycle;Signal;HPM_P1;HPM_P2
2020/12/07 00:01:36;;;;;;;14.68;4.65;;;;;;;-10.84;95.59;102459.12;1720722;83;21188;-58
2020/12/07 00:04:04;;;;;;;15.28;4.67;;;;;;;-10.88;95.70;102452.80;1722253;81;21125;-59
2020/12/07 00:06:32;;;;;;;13.72;4.72;;;;;;;-10.90;95.81;102450.30;1716703;83;20987;-58
2020/12/07 00:09:01;;;;;;;10.70;4.08;;;;;;;-10.91;95.98;102449.01;1720839;82;21184;-57
2020/12/07 00:11:31;;;;;;;11.08;4.28;;;;;;;-10.91;96.06;102450.27;1720095;83;21090;-58
2020/12/07 00:14:00;;;;;;;12.93;5.12;;;;;;;-10.91;96.21;102451.14;1720704;82;21169;-59
2020/12/07 00:16:28;;;;;;;10.00;4.28;;;;;;;-10.92;96.30;102436.00;1720460;82;21176;-58
2020/12/07 00:18:56;;;;;;;10.93;4.53;;;;;;;-10.93;96.35;102443.14;1720773;82;21278;-57
2020/12/07 00:21:24;;;;;;;11.05;4.47;;;;;;;-10.95;96.43;102452.34;1722715;81;21209;-58
2020/12/07 00:23:52;;;;;;;13.85;4.55;;;;;;;-10.96;96.54;102456.97;1724609;81;21207;-58
2020/12/07 00:26:21;;;;;;;9.98;4.83;;;;;;;-10.99;96.57;102448.13;1722465;81;21176;-59
2020/12/07 00:28:49;;;;;;;11.38;4.28;;;;;;;-11.02;96.74;102445.20;1717873;82;21085;-58
2020/12/07 00:31:18;;;;;;;10.63;4.28;;;;;;;-11.01;96.89;102447.30;1719787;82;21137;-58
2020/12/07 00:33:46;;;;;;;16.15;4.78;;;;;;;-11.03;96.95;102438.03;1722194;81;21105;-57
2020/12/07 00:36:14;;;;;;;9.78;4.58;;;;;;;-11.04;97.10;102433.00;1723355;81;21397;-58
2020/12/07 00:38:42;;;;;;;8.48;3.60;;;;;;;-11.05;97.23;102422.52;1720762;82;21165;-58
2020/12/07 00:41:11;;;;;;;12.37;4.92;;;;;;;-11.05;97.30;102410.77;1717633;83;21166;-58
2020/12/07 00:43:39;;;;;;;17.40;5.33;;;;;;;-11.06;97.43;102401.92;1717637;82;21207;-58
2020/12/07 00:46:07;;;;;;;10.03;4.87;;;;;;;-11.07;97.46;102422.48;1720663;83;21272;-57
2020/12/07 00:48:36;;;;;;;8.78;3.62;;;;;;;-11.08;97.51;102423.33;1721229;81;21216;-58
2020/12/07 00:51:04;;;;;;;13.22;4.35;;;;;;;-11.10;97.61;102417.85;1721245;82;21053;-57
2020/12/07 00:53:33;;;;;;;12.07;4.62;;;;;;;-11.12;97.71;102408.20;1723353;81;21133;-57
2020/12/07 00:56:01;;;;;;;9.35;4.12;;;;;;;-11.11;97.83;102401.91;1720744;83;21172;-57
2020/12/07 00:58:30;;;;;;;11.22;5.10;;;;;;;-11.10;97.81;102410.30;1720055;81;21105;-58
2020/12/07 01:00:59;;;;;;;10.40;4.42;;;;;;;-11.11;97.78;102417.02;1698058;83;21218;-57
2020/12/07 01:03:27;;;;;;;12.07;5.03;;;;;;;-11.14;97.74;102416.98;1718366;82;21019;-58
2020/12/07 01:05:56;;;;;;;12.43;5.47;;;;;;;-11.17;97.82;102426.20;1719301;81;21169;-58
2020/12/07 01:08:25;;;;;;;14.63;4.83;;;;;;;-11.17;97.86;102423.69;1718056;81;21073;-58
2020/12/07 01:10:56;;;;;;;12.23;4.67;;;;;;;-11.17;97.97;102423.30;1717924;83;21169;-59
2020/12/07 01:13:25;;;;;;;12.65;4.35;;;;;;;-11.17;97.98;102417.00;1713401;81;21277;-58
2020/12/07 01:15:54;;;;;;;11.40;4.10;;;;;;;-11.17;98.00;102402.28;1718132;83;21046;-57
2020/12/07 01:18:24;;;;;;;11.43;4.92;;;;;;;-11.18;98.00;102407.73;1687938;83;21143;-59
2020/12/07 01:20:53;;;;;;;14.55;4.85;;;;;;;-11.18;98.08;102406.48;1715686;83;21160;-59
2020/12/07 01:23:21;;;;;;;9.85;4.00;;;;;;;-11.18;98.08;102401.45;1713430;82;21173;-59
2020/12/07 01:25:49;;;;;;;10.30;5.08;;;;;;;-11.18;98.06;102408.16;1715705;83;21394;-59
2020/12/07 01:28:18;;;;;;;17.25;5.80;;;;;;;-11.20;98.04;102403.13;1719243;82;21238;-59
2020/12/07 01:30:47;;;;;;;12.25;4.87;;;;;;;-11.20;98.07;102394.73;1695247;83;21176;-59
2020/12/07 01:33:17;;;;;;;13.32;4.62;;;;;;;-11.21;98.08;102405.63;1712394;83;21192;-59
2020/12/07 01:35:47;;;;;;;13.68;4.85;;;;;;;-11.23;98.06;102400.59;1715712;83;21130;-59
2020/12/07 01:38:15;;;;;;;12.13;4.78;;;;;;;-11.25;98.04;102400.98;1716860;82;21729;-58
2020/12/07 01:40:44;;;;;;;14.75;5.30;;;;;;;-11.27;98.09;102399.73;1713977;83;21188;-59
2020/12/07 01:43:12;;;;;;;10.95;4.85;;;;;;;-11.27;98.18;102412.31;1717461;82;21152;-59
2020/12/07 01:45:41;;;;;;;10.38;4.45;;;;;;;-11.28;98.17;102411.06;1716222;82;21213;-59
2020/12/07 01:48:09;;;;;;;16.32;5.33;;;;;;;-11.30;98.28;102417.75;1715847;82;21164;-58
2020/12/07 01:50:40;;;;;;;14.75;5.87;;;;;;;-11.31;98.30;102419.84;1693029;83;21227;-59
2020/12/07 01:53:10;;;;;;;11.45;4.85;;;;;;;-11.32;98.29;102415.23;1694921;83;21240;-57
2020/12/07 01:55:40;;;;;;;12.73;4.58;;;;;;;-11.33;98.31;102422.76;1722359;82;21225;-58
2020/12/07 01:58:08;;;;;;;13.80;5.55;;;;;;;-11.34;98.33;102432.41;1695880;83;21144;-58
2020/12/07 02:00:37;;;;;;;14.73;6.53;;;;;;;-11.35;98.37;102420.24;1718129;82;21082;-58
2020/12/07 02:03:08;;;;;;;13.83;5.55;;;;;;;-11.36;98.34;102429.89;1714716;82;21404;-57
2020/12/07 02:05:40;;;;;;;9.98;5.17;;;;;;;-11.37;98.39;102416.02;1713062;83;21077;-57
2020/12/07 02:08:19;;;;;;;22.15;6.20;;;;;;;-11.39;98.46;102411.41;1712337;82;21622;-58
2020/12/07 02:10:57;;;;;;;11.53;4.43;;;;;;;-11.39;98.56;102412.25;1838660;76;22607;-57
2020/12/07 02:13:27;;;;;;;12.28;5.28;;;;;;;-11.44;98.66;102419.33;1791612;78;20907;-58
2020/12/07 02:15:56;;;;;;;14.87;5.17;;;;;;;-11.46;98.74;102413.46;1773452;80;21203;-58
2020/12/07 02:18:26;;;;;;;11.70;4.92;;;;;;;-11.48;98.86;102408.82;1735740;81;21530;-58
2020/12/07 02:20:56;;;;;;;13.70;5.00;;;;;;;-11.49;98.97;102407.98;1747352;81;21043;-58
2020/12/07 02:23:45;;;;;;;13.10;4.90;;;;;;;-11.49;99.04;102407.98;1805539;77;22672;-59
2020/12/07 02:26:15;;;;;;;13.88;6.30;;;;;;;-11.54;99.20;102410.47;1776514;80;21014;-56
2020/12/07 02:28:49;;;;;;;11.30;5.40;;;;;;;-11.55;99.25;102411.31;1784347;79;21455;-59
2020/12/07 02:31:18;;;;;;;13.58;5.87;;;;;;;-11.55;99.31;102415.09;1786783;80;21160;-59
2020/12/07 02:33:46;;;;;;;13.72;5.45;;;;;;;-11.56;99.38;102419.67;1779401;79;20938;-57
2020/12/07 02:36:15;;;;;;;13.78;4.58;;;;;;;-11.55;99.50;102416.34;1784925;80;21002;-58
2020/12/07 02:38:45;;;;;;;12.98;5.47;;;;;;;-11.53;99.61;102405.86;1784827;79;20915;-58
2020/12/07 02:41:14;;;;;;;14.95;6.25;;;;;;;-11.50;99.62;102405.47;1780048;80;21368;-57
2020/12/07 02:43:43;;;;;;;17.25;7.25;;;;;;;-11.50;99.52;102395.41;1744100;81;20998;-59
2020/12/07 02:46:12;;;;;;;12.70;5.40;;;;;;;-11.51;99.49;102402.11;1783287;80;21014;-58
2020/12/07 02:48:41;;;;;;;14.50;6.85;;;;;;;-11.52;99.50;102411.31;1785276;79;21013;-58
2020/12/07 02:51:11;;;;;;;19.57;6.42;;;;;;;-11.53;99.51;102407.54;1785116;80;21620;-58
2020/12/07 02:53:40;;;;;;;17.27;6.62;;;;;;;-11.54;99.49;102417.19;1785646;79;21144;-58
2020/12/07 02:56:10;;;;;;;13.93;6.28;;;;;;;-11.56;99.48;102423.45;1780552;80;21644;-57
2020/12/07 02:58:40;;;;;;;16.85;6.33;;;;;;;-11.58;99.53;102411.29;1785744;79;21124;-58
2020/12/07 03:01:08;;;;;;;12.00;6.03;;;;;;;-11.59;99.65;102407.09;1782542;80;21052;-57
2020/12/07 03:03:37;;;;;;;14.23;6.17;;;;;;;-11.60;99.74;102401.61;1779977;79;20989;-57
2020/12/07 03:06:05;;;;;;;13.30;5.80;;;;;;;-11.60;99.81;102396.58;1705422;82;21206;-58
2020/12/07 03:08:34;;;;;;;14.07;5.10;;;;;;;-11.61;99.84;102392.81;1786065;79;20990;-58
2020/12/07 03:11:05;;;;;;;16.73;6.22;;;;;;;-11.61;99.89;102400.36;1782215;80;21103;-57
2020/12/07 03:13:35;;;;;;;20.75;7.00;;;;;;;-11.63;99.88;102404.13;1777032;80;21573;-58
2020/12/07 03:16:03;;;;;;;15.75;6.20;;;;;;;-11.62;99.93;102392.39;1784692;80;21217;-57
2020/12/07 03:18:33;;;;;;;16.10;6.53;;;;;;;-11.63;99.91;102394.07;1783436;79;21574;-58
2020/12/07 03:21:03;;;;;;;12.30;6.08;;;;;;;-11.62;99.90;102394.48;1783450;80;21581;-58
2020/12/07 03:23:32;;;;;;;14.45;5.15;;;;;;;-11.63;99.91;102395.72;1782042;79;20957;-59
2020/12/07 03:26:02;;;;;;;14.45;6.03;;;;;;;-11.63;99.93;102397.84;1784356;80;20986;-57
2020/12/07 03:28:30;;;;;;;16.00;5.75;;;;;;;-11.63;99.93;102389.04;1785155;79;20994;-57
2020/12/07 03:31:00;;;;;;;20.68;8.20;;;;;;;-11.62;99.89;102403.30;1786389;80;21431;-57
2020/12/07 03:33:28;;;;;;;18.90;7.72;;;;;;;-11.61;99.84;102391.55;1783853;79;21076;-59
2020/12/07 03:35:57;;;;;;;15.85;6.55;;;;;;;-11.63;99.79;102402.87;1785773;80;20974;-59
2020/12/07 03:38:26;;;;;;;16.57;5.87;;;;;;;-11.66;99.71;102395.30;1781843;79;21069;-59
2020/12/07 03:40:55;;;;;;;11.00;5.35;;;;;;;-11.68;99.68;102402.40;1786244;80;21144;-60
2020/12/07 03:43:32;;;;;;;14.07;5.87;;;;;;;-11.68;99.68;102400.72;1855549;75;22733;-58
2020/12/07 03:46:01;;;;;;;13.70;5.70;;;;;;;-11.73;99.71;102405.31;1804946;77;21050;-58
2020/12/07 03:48:31;;;;;;;16.30;5.55;;;;;;;-11.74;99.75;102408.25;1809435;77;21323;-58
2020/12/07 03:51:00;;;;;;;10.35;5.25;;;;;;;-11.74;99.75;102409.89;1806407;77;20970;-58
2020/12/07 03:53:34;;;;;;;13.50;5.80;;;;;;;-11.74;99.69;102406.12;1811816;77;20998;-58
2020/12/07 03:56:05;;;;;;;12.47;5.58;;;;;;;-11.75;99.68;102405.28;1812727;77;20908;-58
2020/12/07 03:58:34;;;;;;;12.43;5.67;;;;;;;-11.76;99.68;102400.66;1811806;77;21020;-59
2020/12/07 04:01:03;;;;;;;12.68;5.12;;;;;;;-11.76;99.58;102421.21;1808280;77;21327;-59
2020/12/07 04:03:36;;;;;;;12.80;6.17;;;;;;;-11.77;99.50;102416.59;1780282;77;20943;-57
2020/12/07 04:06:12;;;;;;;13.68;6.30;;;;;;;-11.80;99.41;102415.73;1810156;77;20978;-58
2020/12/07 04:08:36;;;;;;;11.88;5.00;;;;;;;-11.81;99.39;102412.80;1814261;77;21115;-58
2020/12/07 04:11:04;;;;;;;13.10;5.92;;;;;;;-11.83;99.34;102416.54;1813937;77;21073;-57
2020/12/07 04:13:32;;;;;;;11.35;4.53;;;;;;;-11.83;99.32;102415.28;1812062;77;21345;-58
2020/12/07 04:16:03;;;;;;;16.75;5.42;;;;;;;-11.84;99.25;102417.83;1810811;77;21026;-56
2020/12/07 04:18:31;;;;;;;18.15;6.05;;;;;;;-11.84;99.14;102422.86;1813744;77;20951;-57
2020/12/07 04:21:02;;;;;;;15.05;6.72;;;;;;;-11.85;99.07;102416.98;1810880;77;21014;-58
2020/12/07 04:23:31;;;;;;;15.68;5.65;;;;;;;-11.87;99.01;102410.25;1806143;77;21089;-57
2020/12/07 04:25:59;;;;;;;12.80;4.92;;;;;;;-11.88;98.96;102408.58;1808451;77;21423;-56
2020/12/07 04:28:28;;;;;;;11.38;4.37;;;;;;;-11.89;98.95;102409.00;1814757;77;21226;-56
2020/12/07 04:30:56;;;;;;;12.00;5.33;;;;;;;-11.90;98.94;102405.19;1804530;77;21002;-58
2020/12/07 04:33:25;;;;;;;14.95;5.05;;;;;;;-11.90;98.90;102381.30;1811067;77;20949;-56
2020/12/07 04:35:53;;;;;;;19.98;5.85;;;;;;;-11.91;98.86;102405.61;1812842;77;20982;-57
2020/12/07 04:38:21;;;;;;;13.83;5.25;;;;;;;-11.91;98.87;102407.29;1812499;77;21258;-56
2020/12/07 04:40:50;;;;;;;12.13;5.35;;;;;;;-11.90;98.82;102392.20;1810053;77;21026;-56
2020/12/07 04:43:18;;;;;;;20.08;6.62;;;;;;;-11.91;98.72;102411.06;1812800;77;21089;-56
2020/12/07 04:45:46;;;;;;;14.60;6.00;;;;;;;-11.92;98.69;102394.30;1771904;79;20992;-56
2020/12/07 04:48:15;;;;;;;17.50;6.80;;;;;;;-11.95;98.67;102398.03;1796926;78;21022;-58
2020/12/07 04:50:42;;;;;;;13.85;5.03;;;;;;;-11.95;98.67;102401.39;1733665;81;21269;-59
2020/12/07 04:53:11;;;;;;;13.30;5.42;;;;;;;-11.93;98.58;102411.45;1766783;79;21049;-58
2020/12/07 04:55:39;;;;;;;12.70;5.00;;;;;;;-11.93;98.48;102392.59;1773271;79;21021;-58
2020/12/07 04:58:07;;;;;;;12.85;5.03;;;;;;;-11.93;98.39;102418.99;1769947;79;21132;-58
2020/12/07 05:00:35;;;;;;;13.00;5.47;;;;;;;-11.94;98.31;102413.13;1765701;79;21179;-58
2020/12/07 05:03:03;;;;;;;13.95;5.58;;;;;;;-11.94;98.28;102404.74;1760387;79;21206;-61
2020/12/07 05:05:31;;;;;;;12.55;5.22;;;;;;;-11.95;98.21;102409.35;1767393;79;21033;-58
2020/12/07 05:08:00;;;;;;;13.48;5.55;;;;;;;-11.95;98.15;102411.45;1739877;80;20967;-58
2020/12/07 05:10:39;;;;;;;12.18;4.87;;;;;;;-11.97;98.04;102398.00;1757947;80;20990;-57
2020/12/07 05:13:22;;;;;;;12.00;5.30;;;;;;;-11.97;98.01;102404.29;1760655;80;21208;-57
2020/12/07 05:15:43;;;;;;;14.05;5.90;;;;;;;-11.97;98.03;102413.09;1757402;80;21326;-58
2020/12/07 05:18:11;;;;;;;15.88;5.42;;;;;;;-11.94;97.98;102398.45;1737585;80;21192;-58
2020/12/07 05:20:39;;;;;;;15.15;6.00;;;;;;;-11.87;97.83;102414.86;1757682;80;21159;-58
2020/12/07 05:23:08;;;;;;;12.50;5.67;;;;;;;-11.80;97.54;102410.70;1760237;80;21575;-58
2020/12/07 05:25:36;;;;;;;15.60;6.15;;;;;;;-11.76;97.30;102414.50;1758221;80;21156;-58
2020/12/07 05:28:04;;;;;;;18.15;5.83;;;;;;;-11.70;97.00;102395.24;1758616;80;22243;-59
2020/12/07 05:30:35;;;;;;;16.62;5.53;;;;;;;-11.59;96.76;102403.71;1760288;80;21022;-59
2020/12/07 05:33:03;;;;;;;17.55;5.40;;;;;;;-11.40;96.46;102393.34;1757617;80;21148;-58
2020/12/07 05:35:38;;;;;;;14.75;6.55;;;;;;;-11.18;95.78;102412.78;1761288;80;21002;-58
2020/12/07 05:38:06;;;;;;;15.98;5.78;;;;;;;-11.00;94.95;102404.90;1758711;80;21112;-59
2020/12/07 05:40:34;;;;;;;19.15;6.50;;;;;;;-10.83;93.91;102404.14;1756599;80;22113;-59
2020/12/07 05:43:02;;;;;;;12.10;5.67;;;;;;;-10.67;92.90;102394.12;1758977;80;21160;-56
2020/12/07 05:45:31;;;;;;;15.15;6.22;;;;;;;-10.52;91.69;102424.83;1757863;80;20994;-58
2020/12/07 05:47:59;;;;;;;14.30;5.62;;;;;;;-10.40;90.67;102394.18;1776463;80;21583;-57
2020/12/07 05:50:28;;;;;;;14.65;5.65;;;;;;;-10.23;89.89;102402.98;1758722;80;21365;-57
2020/12/07 05:55:36;;;;;;;18.87;6.73;;;;;;;-9.83;87.28;102403.86;1869910;75;22632;-58
2020/12/07 05:58:06;;;;;;;18.32;6.33;;;;;;;-9.71;86.15;102396.70;1853693;77;20926;-58
2020/12/07 06:00:36;;;;;;;13.72;5.87;;;;;;;-9.55;85.30;102417.72;1855000;77;21370;-58
2020/12/07 06:03:05;;;;;;;15.83;5.92;;;;;;;-9.38;84.14;102411.40;1849898;77;20926;-56
2020/12/07 06:05:34;;;;;;;13.83;5.92;;;;;;;-9.22;83.12;102408.41;1855988;77;21530;-58
2020/12/07 06:08:09;;;;;;;14.73;6.00;;;;;;;-9.04;82.03;102418.47;1852344;77;20930;-56
2020/12/07 06:10:41;;;;;;;17.17;6.40;;;;;;;-8.89;80.48;102419.68;1857701;77;20911;-58
2020/12/07 06:13:16;;;;;;;14.35;5.83;;;;;;;-8.77;79.56;102420.05;1848979;77;21236;-58
2020/12/07 06:15:45;;;;;;;15.55;6.03;;;;;;;-8.65;77.92;102428.83;1857538;77;20934;-57
2020/12/07 06:18:32;;;;;;;16.40;6.42;;;;;;;-8.57;77.24;102420.78;1854198;77;21028;-59
2020/12/07 06:21:15;;;;;;;17.52;6.10;;;;;;;-8.46;76.32;102423.69;1856214;77;21021;-56
2020/12/07 06:23:44;;;;;;;16.82;6.12;;;;;;;-8.41;74.94;102427.02;1851483;77;20982;-56
2020/12/07 06:26:14;;;;;;;13.93;5.95;;;;;;;-8.38;74.44;102426.58;1854624;77;21132;-56
2020/12/07 06:28:44;;;;;;;21.65;6.33;;;;;;;-8.29;73.77;102445.09;1850763;77;20965;-56
2020/12/07 06:31:20;;;;;;;10.72;5.62;;;;;;;-8.21;73.37;102425.63;1852500;77;20989;-58
2020/12/07 06:33:53;;;;;;;14.23;5.92;;;;;;;-8.09;72.30;102431.88;1850218;77;20942;-56
2020/12/07 06:36:35;;;;;;;14.33;7.03;;;;;;;-8.06;71.26;102434.81;1856580;77;20997;-56
2020/12/07 06:39:10;;;;;;;16.42;5.47;;;;;;;-8.01;71.03;102426.76;1819586;77;21184;-57
2020/12/07 06:41:46;;;;;;;16.12;5.55;;;;;;;-7.87;70.84;102427.50;1856935;77;20922;-57
2020/12/07 06:44:17;;;;;;;13.28;6.17;;;;;;;-7.75;69.79;102425.30;1854759;77;21061;-55
2020/12/07 06:52:19;;;;;;;17.75;7.12;;;;;;;-7.39;67.77;102413.55;1841077;77;20986;-58
2020/12/07 06:57:38;;;;;;;17.23;6.90;;;;;;;-7.23;66.28;102409.62;1858146;77;21549;-57
2020/12/07 07:00:25;;;;;;;15.58;6.87;;;;;;;-7.23;66.28;102409.62;1852561;77;21514;-59
2020/12/07 07:02:58;;;;;;;15.38;5.30;;;;;;;-7.19;65.78;102414.62;1847906;76;21554;-57
2020/12/07 07:05:29;;;;;;;19.75;6.00;;;;;;;-7.15;65.86;102440.34;1846012;77;20978;-57
2020/12/07 07:07:59;;;;;;;16.57;6.47;;;;;;;-7.11;65.36;102420.45;1855446;77;21422;-57
2020/12/07 07:10:27;;;;;;;13.72;5.62;;;;;;;-7.04;65.01;102416.59;1848698;77;20985;-57
2020/12/07 07:12:55;;;;;;;16.62;6.12;;;;;;;-7.06;64.26;102406.88;1856276;77;21021;-58
2020/12/07 07:15:24;;;;;;;10.75;6.00;;;;;;;-7.10;64.48;102424.66;1849625;77;21135;-57
2020/12/07 07:17:52;;;;;;;15.45;6.42;;;;;;;-7.08;64.01;102411.11;1851825;77;21152;-56
2020/12/07 07:20:20;;;;;;;15.25;6.97;;;;;;;-7.09;64.61;102416.62;1848679;77;21188;-58
2020/12/07 07:22:49;;;;;;;14.47;6.78;;;;;;;-6.99;64.20;102402.99;1841573;76;21539;-58
2020/12/07 07:25:22;;;;;;;26.70;6.72;;;;;;;-6.91;64.39;102421.48;1846534;76;21294;-57
2020/12/07 07:30:23;;;;;;;14.90;6.47;;;;;;;-6.88;63.57;102424.42;1846141;76;21009;-57
2020/12/07 07:32:52;;;;;;;16.55;6.12;;;;;;;-6.95;63.06;102436.75;1842795;77;21368;-58
2020/12/07 07:35:23;;;;;;;17.50;5.67;;;;;;;-7.04;63.87;102404.75;1837206;77;21444;-58
2020/12/07 07:37:51;;;;;;;12.45;5.97;;;;;;;-6.94;64.07;102406.30;1843377;77;21143;-57
2020/12/07 07:40:22;;;;;;;17.98;6.70;;;;;;;-6.81;63.92;102407.45;1847949;77;21137;-59
2020/12/07 07:43:00;;;;;;;;;;;;;;;-6.70;63.35;102411.52;1840085;77;20974;-59
2020/12/07 07:45:36;;;;;;;14.63;7.35;;;;;;;-6.71;62.90;102408.55;1832509;77;21420;-58
2020/12/07 07:48:17;;;;;;;22.77;6.25;;;;;;;-6.75;62.72;102406.92;1837108;76;21234;-59
2020/12/07 08:16:23;;;;;;;13.85;5.83;;;;;;;-6.55;61.32;102395.67;1835270;77;20986;-57
2020/12/07 08:18:54;;;;;;;16.70;6.83;;;;;;;-6.63;61.44;102372.55;1844736;77;22256;-58
2020/12/07 08:21:28;;;;;;;17.62;7.35;;;;;;;-6.65;61.83;102366.64;1842736;77;20986;-59
2020/12/07 08:23:59;;;;;;;15.30;6.00;;;;;;;-6.55;62.08;102371.57;1843492;77;21033;-58
2020/12/07 08:26:27;;;;;;;11.40;5.45;;;;;;;-6.40;61.95;102368.84;1771505;79;21022;-56
2020/12/07 08:28:55;;;;;;;12.53;4.85;;;;;;;-6.23;61.28;102357.99;1771915;80;21003;-58
2020/12/07 08:31:24;;;;;;;14.38;5.40;;;;;;;-6.20;60.75;102365.56;1779744;80;21366;-58
2020/12/07 08:34:01;;;;;;;11.78;4.87;;;;;;;-6.21;60.80;102358.82;1770123;80;21055;-58
2020/12/07 08:36:34;;;;;;;12.70;4.97;;;;;;;-6.12;60.74;102377.70;1785741;79;20982;-56
2020/12/07 08:39:04;;;;;;;12.75;5.17;;;;;;;-6.10;60.03;102371.31;1785885;80;20981;-57
2020/12/07 08:41:33;;;;;;;17.45;5.28;;;;;;;-6.18;59.85;102375.68;1767886;79;20995;-57
2020/12/07 08:44:05;;;;;;;16.93;6.28;;;;;;;-6.28;60.24;102369.09;1766760;79;21203;-58
2020/12/07 08:49:13;;;;;;;18.30;6.00;;;;;;;-6.17;60.81;102357.91;1812381;76;22776;-58
2020/12/07 08:51:41;;;;;;;16.32;5.75;;;;;;;-6.13;60.70;102340.92;1772396;80;20968;-58
2020/12/07 08:54:09;;;;;;;16.87;5.97;;;;;;;-6.02;60.82;102359.77;1771582;79;21204;-58
2020/12/07 08:56:37;;;;;;;13.83;6.22;;;;;;;-5.93;60.20;102344.40;1765904;79;21036;-59
2020/12/07 08:59:06;;;;;;;14.80;5.28;;;;;;;-5.97;60.02;102342.78;1774099;80;21013;-58
2020/12/07 09:01:34;;;;;;;15.13;6.45;;;;;;;-5.95;60.19;102332.14;1781224;79;20993;-59
2020/12/07 09:04:03;;;;;;;11.65;5.45;;;;;;;-5.90;60.24;102345.59;1775795;80;20960;-58
2020/12/07 09:06:32;;;;;;;14.25;5.67;;;;;;;-5.90;59.77;102324.84;1781371;80;21356;-59
2020/12/07 09:09:01;;;;;;;15.48;5.42;;;;;;;-5.95;59.74;102330.88;1781469;80;20980;-57
2020/12/07 09:11:29;;;;;;;15.45;7.80;;;;;;;-5.97;60.01;102327.55;1780393;80;21047;-56
2020/12/07 09:13:58;;;;;;;24.05;10.82;;;;;;;-6.00;59.85;102342.39;1781686;80;21040;-58
2020/12/07 09:16:26;;;;;;;21.50;11.95;;;;;;;-6.01;60.10;102337.34;1777776;79;20998;-59
2020/12/07 09:18:54;;;;;;;16.00;6.25;;;;;;;-6.04;59.94;102321.72;1782658;80;21667;-56
2020/12/07 09:21:22;;;;;;;18.62;5.50;;;;;;;-6.05;60.60;102349.25;1778628;79;21537;-57
2020/12/07 09:23:51;;;;;;;10.40;5.33;;;;;;;-5.99;60.27;102325.45;1763696;80;21297;-57
2020/12/07 09:26:20;;;;;;;21.93;5.58;;;;;;;-6.00;60.02;102327.59;1781911;80;21607;-56
2020/12/07 09:28:48;;;;;;;11.20;5.70;;;;;;;-6.08;60.18;102318.00;1781455;80;21041;-58
2020/12/07 09:31:16;;;;;;;12.78;5.83;;;;;;;-6.13;60.40;102330.34;1779340;80;21194;-55
2020/12/07 09:33:47;;;;;;;15.60;5.37;;;;;;;-6.17;60.65;102326.17;1773960;80;21007;-55
2020/12/07 09:36:14;;;;;;;13.93;5.17;;;;;;;-6.16;60.88;102327.84;1773913;80;21196;-56
2020/12/07 09:38:43;;;;;;;21.52;7.37;;;;;;;-6.06;61.25;102334.89;1780238;80;21001;-55
2020/12/07 09:41:11;;;;;;;20.68;6.00;;;;;;;-5.90;60.57;102313.84;1763780;79;21156;-56
2020/12/07 09:43:40;;;;;;;26.00;5.80;;;;;;;-5.85;60.30;102318.41;1774857;80;21099;-56
2020/12/07 09:46:08;;;;;;;15.53;5.50;;;;;;;-5.82;59.98;102312.44;1771604;80;21194;-57
2020/12/07 09:48:36;;;;;;;17.15;5.67;;;;;;;-5.85;59.60;102294.72;1777218;80;21128;-56
2020/12/07 09:51:04;;;;;;;23.52;4.65;;;;;;;-5.93;59.64;102313.93;1773616;80;20932;-56
2020/12/07 09:53:33;;;;;;;15.08;5.40;;;;;;;-6.01;59.88;102292.48;1774528;80;21083;-56
2020/12/07 09:56:01;;;;;;;12.88;5.20;;;;;;;-6.08;59.98;102305.30;1768289;79;21370;-57
2020/12/07 09:58:29;;;;;;;17.67;6.95;;;;;;;-6.09;60.19;102295.59;1778955;80;21106;-56
2020/12/07 10:00:58;;;;;;;21.23;6.12;;;;;;;-6.03;60.38;102333.41;1773815;80;21105;-56
2020/12/07 10:03:28;;;;;;;18.87;6.72;;;;;;;-5.94;60.28;102333.41;1775890;80;21575;-56
2020/12/07 10:05:57;;;;;;;17.12;5.65;;;;;;;-5.88;59.82;102320.99;1766956;80;21636;-58
2020/12/07 10:08:26;;;;;;;20.50;5.90;;;;;;;-5.91;59.81;102297.78;1775968;80;21333;-58
2020/12/07 10:10:54;;;;;;;17.50;5.15;;;;;;;-5.88;60.02;102315.91;1772005;80;21164;-57
2020/12/07 10:13:25;;;;;;;24.98;6.20;;;;;;;-5.81;60.20;102315.38;1779373;80;21559;-57
2020/12/07 10:15:53;;;;;;;14.05;5.62;;;;;;;-5.72;60.18;102296.15;1764142;80;20965;-57
2020/12/07 10:18:23;;;;;;;20.40;6.83;;;;;;;-5.57;60.07;102325.52;1781144;78;21157;-58
2020/12/07 10:20:52;;;;;;;17.65;6.22;;;;;;;-5.44;59.69;102305.38;1768204;80;21257;-58
2020/12/07 10:23:20;;;;;;;29.32;8.68;;;;;;;-5.35;59.16;102304.34;1771909;80;21032;-58
2020/12/07 10:25:50;;;;;;;27.58;6.30;;;;;;;-5.36;58.80;102311.13;1770382;80;21065;-58
2020/12/07 10:28:21;;;;;;;22.75;6.22;;;;;;;-5.37;58.66;102299.74;1773977;80;21149;-57
2020/12/07 10:30:49;;;;;;;19.12;5.92;;;;;;;-5.36;58.56;102289.97;1772177;80;20986;-56
2020/12/07 10:33:18;;;;;;;30.50;7.78;;;;;;;-5.35;58.65;102295.45;1779192;80;21370;-57
2020/12/07 10:35:47;;;;;;;21.97;6.45;;;;;;;-5.29;58.73;102287.27;1782147;79;21055;-57
2020/12/07 10:38:17;;;;;;;22.30;6.58;;;;;;;-5.26;58.36;102287.22;1774427;80;21156;-58
2020/12/07 10:40:46;;;;;;;22.02;5.45;;;;;;;-5.30;58.36;102297.05;1770598;80;21164;-57
2020/12/07 10:43:22;;;;;;;18.45;5.08;;;;;;;-5.32;58.56;102294.95;1778607;79;20985;-57
2020/12/07 10:45:51;;;;;;;14.78;5.17;;;;;;;-5.32;58.76;102292.41;1793492;79;21359;-56
2020/12/07 10:48:20;;;;;;;14.25;5.35;;;;;;;-5.22;58.71;102288.83;1794464;79;21075;-57
2020/12/07 10:50:49;;;;;;;21.05;5.47;;;;;;;-5.14;58.27;102284.41;1758368;80;20957;-56
2020/12/07 10:53:18;;;;;;;17.67;6.20;;;;;;;-5.16;58.34;102280.22;1728105;82;21179;-57
2020/12/07 10:55:47;;;;;;;30.00;10.70;;;;;;;-5.17;58.46;102270.48;1758215;80;21155;-57
2020/12/07 10:58:17;;;;;;;13.83;5.58;;;;;;;-5.15;58.25;102267.48;1728498;81;21338;-57
2020/12/07 11:00:47;;;;;;;23.75;6.92;;;;;;;-5.15;58.18;102271.30;1739595;82;21128;-57
2020/12/07 11:03:17;;;;;;;11.90;4.92;;;;;;;-5.21;58.47;102261.69;1751871;81;21148;-57
2020/12/07 11:05:47;;;;;;;9.05;3.98;;;;;;;-5.20;58.78;102257.83;1757204;80;21649;-57
2020/12/07 11:08:20;;;;;;;14.60;4.80;;;;;;;-5.20;58.77;102254.02;1751443;81;21142;-56
2020/12/07 11:10:52;;;;;;;16.48;5.53;;;;;;;-5.28;58.97;102238.09;1756773;81;21582;-57
2020/12/07 11:13:26;;;;;;;;;;;;;;;-5.32;59.22;102258.09;1724979;81;21123;-57
2020/12/07 11:15:49;;;;;;;19.48;5.12;;;;;;;-5.29;59.63;102244.50;1746141;82;20648;-57
2020/12/07 11:18:18;;;;;;;15.20;5.62;;;;;;;-5.22;59.72;102245.61;1734873;81;21149;-57
2020/12/07 11:20:48;;;;;;;21.25;6.40;;;;;;;-5.18;59.29;102240.02;1735318;81;21182;-58
2020/12/07 11:23:17;;;;;;;16.27;6.53;;;;;;;-5.20;59.37;102241.75;1737854;81;21211;-57
2020/12/07 11:25:46;;;;;;;15.38;5.78;;;;;;;-5.22;59.45;102243.06;1742349;82;21002;-57
2020/12/07 11:28:14;;;;;;;17.45;5.70;;;;;;;-5.25;59.46;102243.56;1741989;82;21188;-58
2020/12/07 11:30:44;;;;;;;12.80;5.03;;;;;;;-5.31;59.71;102234.78;1740810;82;21202;-58
2020/12/07 11:33:13;;;;;;;15.70;5.72;;;;;;;-5.34;60.04;102229.35;1757186;80;20992;-57
2020/12/07 11:35:43;;;;;;;19.57;6.03;;;;;;;-5.36;60.29;102243.78;1750503;81;21216;-57
2020/12/07 11:38:16;;;;;;;20.52;6.72;;;;;;;-5.40;60.52;102243.45;1725537;82;20966;-57
2020/12/07 11:46:31;;;;;;;19.07;6.47;;;;;;;-5.46;61.50;102228.31;1727084;81;21252;-60
2020/12/07 11:48:58;;;;;;;14.03;6.03;;;;;;;-5.42;61.31;102212.13;1724320;82;21399;-60
2020/12/07 11:51:27;;;;;;;14.00;4.80;;;;;;;-5.42;60.99;102229.52;1708946;83;21125;-57
2020/12/07 11:53:56;;;;;;;16.80;6.37;;;;;;;-5.43;60.92;102232.90;1751468;81;21078;-58
2020/12/07 11:56:36;;;;;;;19.57;6.40;;;;;;;-5.41;61.32;102233.72;1726083;82;21050;-59
2020/12/07 11:59:06;;;;;;;20.70;5.33;;;;;;;-5.37;61.36;102229.41;1755670;80;21096;-59
2020/12/07 12:01:34;;;;;;;10.10;4.87;;;;;;;-5.37;61.48;102224.77;1755441;81;21205;-59
2020/12/07 12:04:04;;;;;;;17.80;5.83;;;;;;;-5.36;61.66;102228.53;1724244;82;21158;-59
2020/12/07 12:06:34;;;;;;;14.75;6.20;;;;;;;-5.31;61.79;102233.52;1757941;80;21646;-58
2020/12/07 12:09:05;;;;;;;17.62;6.00;;;;;;;-5.30;61.58;102222.47;1751870;81;21105;-59
2020/12/07 12:11:35;;;;;;;18.23;6.35;;;;;;;-5.33;61.70;102229.74;1726271;82;26857;-58
2020/12/07 12:14:07;;;;;;;10.40;4.97;;;;;;;-5.33;61.95;102228.47;1758515;80;21427;-59